createdAt,value
2019-02-25T00:01:05.677Z,75.17
2019-02-25T00:03:56.486Z,75.54
2019-02-25T00:06:29.698Z,75.06
2019-02-25T00:09:01.704Z,75.06
2019-02-25T00:11:30.458Z,74.87
2019-02-25T00:14:01.353Z,75.07
2019-02-25T00:16:32.255Z,75.28
2019-02-25T00:19:07.814Z,75.69
2019-02-25T00:21:39.609Z,75.96
2019-02-25T00:24:11.390Z,76.91
2019-02-25T00:26:40.627Z,77.59
2019-02-25T00:29:12.887Z,77.94
2019-02-25T00:31:47.842Z,78.90
2019-02-25T00:34:20.041Z,78.87
2019-02-25T00:36:52.275Z,78.94
2019-02-25T00:39:28.953Z,78.41
2019-02-25T00:41:58.640Z,78.49
2019-02-25T00:44:30.660Z,78.66
2019-02-25T00:47:04.621Z,78.70
2019-02-25T00:49:38.036Z,78.78
2019-02-25T00:52:07.999Z,78.67
2019-02-25T00:54:42.813Z,78.50
2019-02-25T00:57:15.061Z,78.32
2019-02-25T00:59:44.166Z,78.42
2019-02-25T01:02:12.904Z,78.43
2019-02-25T01:04:43.902Z,78.29
2019-02-25T01:07:18.934Z,77.87
2019-02-25T01:09:49.687Z,78.23
2019-02-25T01:12:19.034Z,78.20
2019-02-25T01:14:48.128Z,77.34
2019-02-25T01:17:17.727Z,77.41
2019-02-25T01:19:51.934Z,78.03
2019-02-25T01:22:23.005Z,77.92
2019-02-25T01:24:53.071Z,77.65
2019-02-25T01:27:22.315Z,78.37
2019-02-25T01:29:51.761Z,78.78
2019-02-25T01:32:23.842Z,78.58
2019-02-25T01:34:56.179Z,78.52
2019-02-25T01:37:32.648Z,78.29
2019-02-25T01:40:03.230Z,78.99
2019-02-25T01:42:37.302Z,79.44
2019-02-25T01:45:08.788Z,79.31
2019-02-25T01:47:40.925Z,80.16
2019-02-25T01:50:14.877Z,79.65
2019-02-25T01:52:47.183Z,79.85
2019-02-25T01:55:16.092Z,79.34
2019-02-25T01:57:46.252Z,79.15
2019-02-25T02:00:17.826Z,79.12
2019-02-25T02:02:46.754Z,79.24
2019-02-25T02:05:15.834Z,79.27
2019-02-25T02:07:47.165Z,79.26
2019-02-25T02:10:17.419Z,79.34
2019-02-25T02:12:49.688Z,79.37
2019-02-25T02:15:20.386Z,79.48
2019-02-25T02:17:50.646Z,79.65
2019-02-25T02:20:21.632Z,79.87
2019-02-25T02:22:50.749Z,80.18
2019-02-25T02:25:24.598Z,80.10
2019-02-25T02:27:57.853Z,80.23
2019-02-25T02:30:32.925Z,80.26
2019-02-25T02:33:01.642Z,80.49
2019-02-25T02:35:35.530Z,80.04
2019-02-25T02:38:06.448Z,79.77
2019-02-25T02:40:40.452Z,79.51
2019-02-25T02:43:13.580Z,79.30
2019-02-25T02:45:55.427Z,79.14
2019-02-25T02:48:40.470Z,79.18
2019-02-25T02:51:15.412Z,79.47
2019-02-25T02:53:50.455Z,78.74
2019-02-25T02:56:21.195Z,78.94
2019-02-25T02:58:56.451Z,79.75
2019-02-25T03:01:29.664Z,79.62
2019-02-25T03:04:02.693Z,79.55
2019-02-25T03:06:37.649Z,79.60
2019-02-25T03:09:10.559Z,80.03
2019-02-25T03:11:41.621Z,80.24
2019-02-25T03:14:14.094Z,80.12
2019-02-25T03:16:47.558Z,80.03
2019-02-25T03:19:21.742Z,79.92
2019-02-25T03:21:53.656Z,80.18
2019-02-25T03:24:25.411Z,80.52
2019-02-25T03:26:57.914Z,81.25
2019-02-25T03:29:35.155Z,80.71
2019-02-25T03:32:08.819Z,80.11
2019-02-25T03:34:39.348Z,81.25
2019-02-25T03:37:29.053Z,80.33
2019-02-25T03:40:01.631Z,80.56
2019-02-25T03:42:32.833Z,80.58
2019-02-25T03:45:06.091Z,81.12
2019-02-25T03:47:35.656Z,80.43
2019-02-25T03:50:10.795Z,80.29
2019-02-25T03:52:42.097Z,80.68
2019-02-25T03:55:18.183Z,81.15
2019-02-25T03:57:50.358Z,81.17
2019-02-25T04:00:22.309Z,80.92
2019-02-25T04:02:56.012Z,81.02
2019-02-25T04:05:30.194Z,80.78
2019-02-25T04:08:02.749Z,80.34
2019-02-25T04:10:35.290Z,80.65
2019-02-25T04:13:08.069Z,80.83
2019-02-25T04:15:42.599Z,80.31
2019-02-25T04:18:14.724Z,80.23
2019-02-25T04:20:49.173Z,80.32
2019-02-25T04:23:20.223Z,80.56
2019-02-25T04:25:54.737Z,81.10
2019-02-25T04:28:27.328Z,80.64
2019-02-25T04:30:57.968Z,80.61
2019-02-25T04:33:27.883Z,80.64
2019-02-25T04:35:57.168Z,80.64
2019-02-25T04:38:33.612Z,81.16
2019-02-25T04:41:02.710Z,81.03
2019-02-25T04:43:34.801Z,81.68
2019-02-25T04:46:11.663Z,82.45
2019-02-25T04:48:43.870Z,82.58
2019-02-25T04:51:13.269Z,81.88
2019-02-25T04:53:47.826Z,81.87
2019-02-25T04:56:19.940Z,82.33
2019-02-25T04:58:54.079Z,82.72
2019-02-25T05:01:27.801Z,82.43
2019-02-25T05:04:06.017Z,82.47
2019-02-25T05:06:40.123Z,82.14
2019-02-25T05:09:12.029Z,81.85
2019-02-25T05:11:42.182Z,81.62
2019-02-25T05:14:16.958Z,81.41
2019-02-25T05:16:47.067Z,82.24
2019-02-25T05:19:17.698Z,82.47
2019-02-25T05:21:47.025Z,82.81
2019-02-25T05:24:18.021Z,82.25
2019-02-25T05:26:49.281Z,81.99
2019-02-25T05:29:18.627Z,81.60
2019-02-25T05:31:49.546Z,81.69
2019-02-25T05:34:19.084Z,81.95
2019-02-25T05:36:52.540Z,81.82
2019-02-25T05:39:20.753Z,82.04
2019-02-25T05:41:51.980Z,82.45
2019-02-25T05:44:25.489Z,82.79
2019-02-25T05:46:59.181Z,82.92
2019-02-25T05:49:29.665Z,82.81
2019-02-25T05:51:59.968Z,83.09
2019-02-25T05:54:31.798Z,82.93
2019-02-25T05:57:02.796Z,82.97
2019-02-25T05:59:34.581Z,82.78
2019-02-25T06:02:05.434Z,82.40
2019-02-25T06:04:37.030Z,82.37
2019-02-25T06:07:10.861Z,82.75
2019-02-25T06:09:42.879Z,82.71
2019-02-25T06:12:13.630Z,82.53
2019-02-25T06:14:46.346Z,82.62
2019-02-25T06:17:17.147Z,82.58
2019-02-25T06:19:51.713Z,82.94
2019-02-25T06:22:23.554Z,83.03
2019-02-25T06:24:57.164Z,82.95
2019-02-25T06:27:31.075Z,83.10
2019-02-25T06:30:01.160Z,83.31
2019-02-25T06:32:33.342Z,83.28
2019-02-25T06:35:05.563Z,83.30
2019-02-25T06:37:37.569Z,83.14
2019-02-25T06:40:08.856Z,82.75
2019-02-25T06:42:39.449Z,82.76
2019-02-25T06:45:14.876Z,82.16
2019-02-25T06:47:46.039Z,81.94
2019-02-25T06:50:18.016Z,81.57
2019-02-25T06:52:51.544Z,81.21
2019-02-25T06:55:22.220Z,81.03
2019-02-25T06:57:54.112Z,80.39
2019-02-25T07:00:25.512Z,79.84
2019-02-25T07:03:00.237Z,79.76
2019-02-25T07:05:41.846Z,79.43
2019-02-25T07:08:32.971Z,79.20
2019-02-25T07:11:25.791Z,78.87
2019-02-25T07:14:13.870Z,78.29
2019-02-25T07:17:00.529Z,78.28
2019-02-25T07:19:38.399Z,78.48
2019-02-25T07:22:16.436Z,78.47
2019-02-25T07:25:07.322Z,78.81
2019-02-25T07:28:11.417Z,78.76
2019-02-25T07:31:03.899Z,78.88
2019-02-25T07:33:53.366Z,78.32
2019-02-25T07:36:39.811Z,78.44
2019-02-25T07:39:35.551Z,78.21
2019-02-25T07:42:11.774Z,77.82
2019-02-25T07:45:06.549Z,77.74
2019-02-25T07:47:48.746Z,77.25
2019-02-25T07:50:28.185Z,77.13
2019-02-25T07:53:17.682Z,76.58
2019-02-25T07:56:05.963Z,77.33
2019-02-25T07:59:07.381Z,75.45
2019-02-25T08:02:04.052Z,74.52
2019-02-25T08:04:44.990Z,72.81
2019-02-25T08:07:45.107Z,73.01
2019-02-25T08:10:37.385Z,72.40
2019-02-25T08:13:26.944Z,72.05
2019-02-25T08:16:34.601Z,71.37
2019-02-25T08:19:15.667Z,71.25
2019-02-25T08:22:04.028Z,70.33
2019-02-25T08:25:03.628Z,69.81
2019-02-25T08:28:01.622Z,70.00
2019-02-25T08:30:51.875Z,69.55
2019-02-25T08:33:42.780Z,67.99
2019-02-25T08:37:06.604Z,67.20
2019-02-25T08:39:59.330Z,68.22
2019-02-25T08:42:35.085Z,66.10
2019-02-25T08:45:19.062Z,66.25
2019-02-25T08:47:59.199Z,66.89
2019-02-25T08:50:33.304Z,66.76
2019-02-25T08:53:03.315Z,67.05
2019-02-25T08:55:32.302Z,65.66
2019-02-25T08:58:00.869Z,64.56
2019-02-25T09:00:29.439Z,65.27
2019-02-25T09:02:58.341Z,64.35
2019-02-25T09:05:27.505Z,64.90
2019-02-25T09:07:57.684Z,63.26
2019-02-25T09:10:26.665Z,63.43
2019-02-25T09:12:57.392Z,63.41
2019-02-25T09:15:32.589Z,62.30
2019-02-25T09:18:02.373Z,61.18
2019-02-25T09:20:31.480Z,60.35
2019-02-25T09:23:06.022Z,60.90
2019-02-25T09:25:37.245Z,60.46
2019-02-25T09:28:07.376Z,59.77
2019-02-25T09:30:36.585Z,59.95
2019-02-25T09:33:11.131Z,59.64
2019-02-25T09:35:40.279Z,59.50
2019-02-25T09:38:14.568Z,59.98
2019-02-25T09:40:48.498Z,59.55
2019-02-25T09:43:18.623Z,59.42
2019-02-25T09:45:47.871Z,59.94
2019-02-25T09:48:18.350Z,57.54
2019-02-25T09:50:47.241Z,57.54
2019-02-25T09:53:17.807Z,57.93
2019-02-25T09:55:49.771Z,56.08
2019-02-25T09:58:18.629Z,56.08
2019-02-25T10:00:52.229Z,56.65
2019-02-25T10:03:21.131Z,55.27
2019-02-25T10:05:52.483Z,54.48
2019-02-25T10:08:22.902Z,52.33
2019-02-25T10:10:53.666Z,52.94
2019-02-25T10:13:25.763Z,52.71
2019-02-25T10:15:57.391Z,52.71
2019-02-25T10:18:26.539Z,51.80
2019-02-25T10:20:58.286Z,52.03
2019-02-25T10:23:30.669Z,52.07
2019-02-25T10:26:05.679Z,51.36
2019-02-25T10:28:34.775Z,51.67
2019-02-25T10:31:08.426Z,51.13
2019-02-25T10:33:36.878Z,51.09
2019-02-25T10:36:08.663Z,50.42
2019-02-25T10:38:37.715Z,50.28
2019-02-25T10:41:06.662Z,49.36
2019-02-25T10:43:41.038Z,49.67
2019-02-25T10:46:13.419Z,47.73
2019-02-25T10:48:44.037Z,48.27
2019-02-25T10:51:17.764Z,49.19
2019-02-25T10:53:47.795Z,48.25
2019-02-25T10:56:23.842Z,48.26
2019-02-25T10:58:59.642Z,48.32
2019-02-25T11:01:29.795Z,48.08
2019-02-25T11:03:58.328Z,47.30
2019-02-25T11:06:29.087Z,46.69
2019-02-25T11:09:06.888Z,47.15
2019-02-25T11:11:37.313Z,46.79
2019-02-25T11:14:09.210Z,45.79
2019-02-25T11:16:41.925Z,45.57
2019-02-25T11:19:12.428Z,45.86
2019-02-25T11:21:44.377Z,45.05
2019-02-25T11:24:16.691Z,45.34
2019-02-25T11:26:49.038Z,44.42
2019-02-25T11:29:21.566Z,44.47
2019-02-25T11:31:53.133Z,44.74
2019-02-25T11:34:22.362Z,43.67
2019-02-25T11:36:55.505Z,43.64
2019-02-25T11:39:27.572Z,43.78
2019-02-25T11:41:57.566Z,43.60
2019-02-25T11:44:31.152Z,44.04
2019-02-25T11:47:04.677Z,43.38
2019-02-25T11:49:37.247Z,43.62
2019-02-25T11:52:07.877Z,42.97
2019-02-25T11:54:40.139Z,41.99
2019-02-25T11:57:10.801Z,42.26
2019-02-25T11:59:42.846Z,42.14
2019-02-25T12:02:11.587Z,41.57
2019-02-25T12:04:40.730Z,41.48
2019-02-25T12:07:13.236Z,40.38
2019-02-25T12:09:42.264Z,41.20
2019-02-25T12:12:12.757Z,41.44
2019-02-25T12:14:47.765Z,40.41
2019-02-25T12:17:18.733Z,40.77
2019-02-25T12:19:52.233Z,39.44
2019-02-25T12:22:24.596Z,39.10
2019-02-25T12:24:54.902Z,38.11
2019-02-25T12:27:24.611Z,38.28
2019-02-25T12:29:57.425Z,38.36
2019-02-25T12:32:26.337Z,36.83
2019-02-25T12:34:54.869Z,35.22
2019-02-25T12:37:25.598Z,37.18
2019-02-25T12:39:56.322Z,37.39
2019-02-25T12:42:27.400Z,35.31
2019-02-25T12:44:58.027Z,35.01
2019-02-25T12:47:27.609Z,34.66
2019-02-25T12:50:00.813Z,34.56
2019-02-25T12:52:31.051Z,32.46
2019-02-25T12:55:01.552Z,32.31
2019-02-25T12:57:30.270Z,31.83
2019-02-25T13:00:04.229Z,31.79
2019-02-25T13:02:34.793Z,30.89
2019-02-25T13:05:03.532Z,31.27
2019-02-25T13:07:36.955Z,31.37
2019-02-25T13:10:08.537Z,31.27
2019-02-25T13:12:39.046Z,30.66
2019-02-25T13:15:13.278Z,31.47
2019-02-25T13:17:43.808Z,31.79
2019-02-25T13:20:12.357Z,32.50
2019-02-25T13:22:43.283Z,32.83
2019-02-25T13:25:14.607Z,33.39
2019-02-25T13:27:45.399Z,32.89
2019-02-25T13:30:15.113Z,33.25
2019-02-25T13:32:45.462Z,33.79
2019-02-25T13:35:14.969Z,35.33
2019-02-25T13:37:48.498Z,35.55
2019-02-25T13:40:23.686Z,34.87
2019-02-25T13:42:54.133Z,35.63
2019-02-25T13:45:24.862Z,35.17
2019-02-25T13:47:57.028Z,35.31
2019-02-25T13:50:29.133Z,35.70
2019-02-25T13:53:03.841Z,35.82
2019-02-25T13:55:36.804Z,35.81
2019-02-25T13:58:14.601Z,36.28
2019-02-25T14:00:51.469Z,36.28
2019-02-25T14:03:21.656Z,36.05
2019-02-25T14:05:53.910Z,35.65
2019-02-25T14:08:24.009Z,35.71
2019-02-25T14:10:54.435Z,36.10
2019-02-25T14:13:23.155Z,35.90
2019-02-25T14:15:55.012Z,35.97
2019-02-25T14:18:26.633Z,34.29
2019-02-25T14:20:55.544Z,35.51
2019-02-25T14:23:30.782Z,35.00
2019-02-25T14:26:03.711Z,35.26
2019-02-25T14:28:34.719Z,35.72
2019-02-25T14:31:10.139Z,34.93
2019-02-25T14:33:40.036Z,35.11
2019-02-25T14:36:10.660Z,34.46
2019-02-25T14:38:41.583Z,34.93
2019-02-25T14:41:16.054Z,34.93
2019-02-25T14:43:49.188Z,35.90
2019-02-25T14:46:21.836Z,36.37
2019-02-25T14:48:48.879Z,36.36
2019-02-25T14:51:17.631Z,37.24
2019-02-25T14:53:52.735Z,36.31
2019-02-25T14:56:28.175Z,36.25
2019-02-25T14:59:00.607Z,37.05
2019-02-25T15:01:29.828Z,36.69
2019-02-25T15:04:04.315Z,37.57
2019-02-25T15:06:36.777Z,38.27
2019-02-25T15:09:09.822Z,38.66
2019-02-25T15:11:38.996Z,39.51
2019-02-25T15:14:12.853Z,39.12
2019-02-25T15:16:42.119Z,38.79
2019-02-25T15:19:13.339Z,39.68
2019-02-25T15:21:43.331Z,39.97
2019-02-25T15:24:16.563Z,38.46
2019-02-25T15:26:48.879Z,38.38
2019-02-25T15:29:22.335Z,38.38
2019-02-25T15:31:57.078Z,37.87
2019-02-25T15:34:28.524Z,37.78
2019-02-25T15:36:58.604Z,37.79
2019-02-25T15:39:28.137Z,37.72
2019-02-25T15:42:02.085Z,38.20
2019-02-25T15:44:30.658Z,37.29
2019-02-25T15:47:02.517Z,37.09
2019-02-25T15:49:34.683Z,37.23
2019-02-25T15:52:05.252Z,36.72
2019-02-25T15:54:39.376Z,36.79
2019-02-25T15:57:09.022Z,36.64
2019-02-25T15:59:45.058Z,36.20
2019-02-25T16:02:18.926Z,36.48
2019-02-25T16:04:56.418Z,36.66
2019-02-25T16:07:25.961Z,37.86
2019-02-25T16:10:03.319Z,37.21
2019-02-25T16:12:31.440Z,39.13
2019-02-25T16:15:01.411Z,39.86
2019-02-25T16:17:35.158Z,41.54
2019-02-25T16:20:07.541Z,42.77
2019-02-25T16:22:40.807Z,43.28
2019-02-25T16:25:14.402Z,45.02
2019-02-25T16:27:49.398Z,45.50
2019-02-25T16:30:19.101Z,46.04
2019-02-25T16:32:48.791Z,46.05
2019-02-25T16:35:20.942Z,47.14
2019-02-25T16:37:50.826Z,48.99
2019-02-25T16:40:26.417Z,51.01
2019-02-25T16:42:54.985Z,51.42
2019-02-25T16:45:34.843Z,52.19
2019-02-25T16:48:04.838Z,53.02
2019-02-25T16:50:35.293Z,53.28
2019-02-25T16:53:10.271Z,53.10
2019-02-25T16:55:39.931Z,52.30
2019-02-25T16:58:13.225Z,53.12
2019-02-25T17:00:41.729Z,53.91
2019-02-25T17:03:13.770Z,54.45
2019-02-25T17:05:45.634Z,54.81
2019-02-25T17:08:19.046Z,54.87
2019-02-25T17:10:53.933Z,55.15
2019-02-25T17:13:23.491Z,55.57
2019-02-25T17:15:53.081Z,55.82
2019-02-25T17:18:23.831Z,56.41
2019-02-25T17:20:55.880Z,56.71
2019-02-25T17:23:30.207Z,56.00
2019-02-25T17:26:02.016Z,56.14
2019-02-25T17:28:33.506Z,56.40
2019-02-25T17:31:06.519Z,56.17
2019-02-25T17:33:42.796Z,56.87
2019-02-25T17:36:16.597Z,57.69
2019-02-25T17:38:50.147Z,58.34
2019-02-25T17:41:20.767Z,58.91
2019-02-25T17:43:50.036Z,58.70
2019-02-25T17:46:19.098Z,59.17
2019-02-25T17:48:48.138Z,58.97
2019-02-25T17:51:20.866Z,58.73
2019-02-25T17:53:54.799Z,58.24
2019-02-25T17:56:26.994Z,57.88
2019-02-25T17:58:55.772Z,57.28
2019-02-25T18:01:28.013Z,57.13
2019-02-25T18:03:56.735Z,57.17
2019-02-25T18:06:31.952Z,58.21
2019-02-25T18:09:04.577Z,59.03
2019-02-25T18:11:33.449Z,59.80
2019-02-25T18:14:05.274Z,60.15
2019-02-25T18:16:37.127Z,60.91
2019-02-25T18:19:09.200Z,61.06
2019-02-25T18:21:43.850Z,61.20
2019-02-25T18:24:13.858Z,61.32
2019-02-25T18:26:52.832Z,61.30
2019-02-25T18:29:25.177Z,62.11
2019-02-25T18:31:59.236Z,63.05
2019-02-25T18:34:32.197Z,62.77
2019-02-25T18:37:03.425Z,63.16
2019-02-25T18:39:35.697Z,63.69
2019-02-25T18:42:11.617Z,63.80
2019-02-25T18:44:39.975Z,64.00
2019-02-25T18:47:16.527Z,64.97
2019-02-25T18:49:47.786Z,64.75
2019-02-25T18:52:19.591Z,64.62
2019-02-25T18:54:51.561Z,64.69
2019-02-25T18:57:21.036Z,65.23
2019-02-25T18:59:54.802Z,65.58
2019-02-25T19:02:26.448Z,65.74
2019-02-25T19:05:02.139Z,65.39
2019-02-25T19:07:37.714Z,65.50
2019-02-25T19:10:12.553Z,65.66
2019-02-25T19:12:43.901Z,65.42
2019-02-25T19:15:15.474Z,66.03
2019-02-25T19:17:45.843Z,66.70
2019-02-25T19:20:17.643Z,67.25
2019-02-25T19:22:46.518Z,67.77
2019-02-25T19:25:20.892Z,68.26
2019-02-25T19:27:52.697Z,68.53
2019-02-25T19:30:22.298Z,68.99
2019-02-25T19:32:53.447Z,69.34
2019-02-25T19:35:25.779Z,69.16
2019-02-25T19:37:56.090Z,69.32
2019-02-25T19:40:25.043Z,69.85
2019-02-25T19:43:00.523Z,71.78
2019-02-25T19:45:29.890Z,71.91
2019-02-25T19:48:02.469Z,71.68
2019-02-25T19:50:32.362Z,71.37
2019-02-25T19:53:04.570Z,72.03
2019-02-25T19:55:33.968Z,72.37
2019-02-25T19:58:04.223Z,72.83
2019-02-25T20:00:35.351Z,73.10
2019-02-25T20:03:07.593Z,73.36
2019-02-25T20:05:41.658Z,73.21
2019-02-25T20:08:11.436Z,73.33
2019-02-25T20:10:42.398Z,74.02
2019-02-25T20:13:14.380Z,73.96
2019-02-25T20:15:44.403Z,73.80
2019-02-25T20:18:13.928Z,73.87
2019-02-25T20:20:45.773Z,74.30
2019-02-25T20:23:16.371Z,74.02
2019-02-25T20:25:47.068Z,74.16
2019-02-25T20:28:18.665Z,75.01
2019-02-25T20:30:48.964Z,75.13
2019-02-25T20:33:18.393Z,75.52
2019-02-25T20:35:51.167Z,75.43
2019-02-25T20:38:22.523Z,75.37
2019-02-25T20:40:51.579Z,75.33
2019-02-25T20:43:23.504Z,75.21
2019-02-25T20:45:54.643Z,77.53
2019-02-25T20:48:29.278Z,77.11
2019-02-25T20:50:59.825Z,77.73
2019-02-25T20:53:41.142Z,76.76
2019-02-25T20:56:09.868Z,76.23
2019-02-25T20:58:40.202Z,77.56
2019-02-25T21:01:16.101Z,78.09
2019-02-25T21:03:48.587Z,77.56
2019-02-25T21:06:22.830Z,77.18
2019-02-25T21:08:57.537Z,76.65
2019-02-25T21:11:26.612Z,76.45
2019-02-25T21:13:56.835Z,76.42
2019-02-25T21:16:30.575Z,76.78
2019-02-25T21:19:03.154Z,77.22
2019-02-25T21:21:34.647Z,77.36
2019-02-25T21:24:08.803Z,77.40
2019-02-25T21:26:40.977Z,78.02
2019-02-25T21:29:10.319Z,78.47
2019-02-25T21:31:47.259Z,78.22
2019-02-25T21:34:20.535Z,78.23
2019-02-25T21:36:47.584Z,78.11
2019-02-25T21:39:19.122Z,78.03
2019-02-25T21:41:47.780Z,77.84
2019-02-25T21:44:23.566Z,77.53
2019-02-25T21:46:56.254Z,77.67
2019-02-25T21:49:27.160Z,77.37
2019-02-25T21:51:57.005Z,77.99
2019-02-25T21:54:27.846Z,77.84
2019-02-25T21:56:59.074Z,78.54
2019-02-25T21:59:32.237Z,78.43
2019-02-25T22:02:03.737Z,79.12
2019-02-25T22:04:38.488Z,79.08
2019-02-25T22:07:10.470Z,79.00
2019-02-25T22:09:41.880Z,79.06
2019-02-25T22:12:11.301Z,80.47
2019-02-25T22:14:41.196Z,80.52
2019-02-25T22:17:15.130Z,81.04
2019-02-25T22:19:45.816Z,80.53
2019-02-25T22:22:24.128Z,79.86
2019-02-25T22:24:50.486Z,79.17
2019-02-25T22:27:21.206Z,79.12
2019-02-25T22:29:53.042Z,78.91
2019-02-25T22:32:21.744Z,78.97
2019-02-25T22:34:56.065Z,78.27
2019-02-25T22:37:29.174Z,78.28
2019-02-25T22:39:59.501Z,78.34
2019-02-25T22:42:33.413Z,78.24
2019-02-25T22:45:02.196Z,78.28
2019-02-25T22:47:30.742Z,78.49
2019-02-25T22:50:04.305Z,78.73
2019-02-25T22:52:37.290Z,78.76
2019-02-25T22:55:08.184Z,79.32
2019-02-25T22:57:41.058Z,80.00
2019-02-25T23:00:22.926Z,80.79
2019-02-25T23:02:56.825Z,81.21
2019-02-25T23:05:26.556Z,81.89
2019-02-25T23:07:55.518Z,81.07
2019-02-25T23:10:27.899Z,81.10
2019-02-25T23:12:58.118Z,81.23
2019-02-25T23:15:30.613Z,81.91
2019-02-25T23:18:05.275Z,82.48
2019-02-25T23:20:31.704Z,82.55
2019-02-25T23:23:04.855Z,83.35
2019-02-25T23:25:32.419Z,83.54
2019-02-25T23:28:02.305Z,83.01
2019-02-25T23:30:30.946Z,83.03
2019-02-25T23:33:02.070Z,83.02
2019-02-25T23:35:30.641Z,83.26
2019-02-25T23:38:03.817Z,83.68
2019-02-25T23:40:36.010Z,82.96
2019-02-25T23:43:07.478Z,82.37
2019-02-25T23:45:37.917Z,82.63
2019-02-25T23:48:08.955Z,83.18
2019-02-25T23:50:36.972Z,82.99
2019-02-25T23:53:12.289Z,83.01
2019-02-25T23:55:45.156Z,82.72
2019-02-25T23:58:19.613Z,83.12
